Terminal Aerodrome Forecast
Issued by NWS

Home | Current Version | Previous Version | Text Only | Print | Product List | Glossary On
Versions: 1 2 3 4 5 6 7 8 9 10 11 12 13 14 15
239
FTUS45 KRIW 160521
TAFCPR
TAF
KCPR 160521Z 1606/1706 22011KT P6SM SCT250
     FM161000 23016G26KT P6SM SCT250
     FM162300 26013KT P6SM SCT250
     FM170100 24009KT P6SM SCT250=

USA.gov is the U.S. government's official web portal to all federal, state and local government web resources and services.